TAFS

Station TAF
VRMM
VRMM 181100Z 1812/1918 20010KT 9999 FEW018TCU TEMPO 1813/1819 5000 TSRA FEW017CB=
VRMH
VRMH 181100Z 1812/1918 20008KT 9999 FEW018TCU TEMPO 1813/1819 5000 TSRA FEW017CB=
VRMK
VRMK 181100Z 1812/1912 17006KT 9999 FEW018 TEMPO 1812/1818 FEW018CB=
VRMT
VRMT 181100Z 1812/1912 16007KT 9999 FEW018 TEMPO 1812/1818 FEW018CB=
VRMG
VRMG 181100Z 1812/1918 18007KT 9999 FEW018 TEMPO 1812/1818 FEW018CB=